createdAt,value
2018-06-24T00:01:06.681Z,101168.25
2018-06-24T00:03:35.702Z,101176.52
2018-06-24T00:06:04.395Z,101171.05
2018-06-24T00:08:34.020Z,101164.20
2018-06-24T00:11:03.341Z,101158.75
2018-06-24T00:13:32.318Z,101152.91
2018-06-24T00:16:01.193Z,101148.86
2018-06-24T00:18:30.104Z,101147.62
2018-06-24T00:20:59.322Z,101148.85
2018-06-24T00:23:28.469Z,101145.11
2018-06-24T00:25:57.831Z,101139.98
2018-06-24T00:28:28.323Z,101138.64
2018-06-24T00:31:00.354Z,101136.22
2018-06-24T00:33:30.706Z,101133.95
2018-06-24T00:36:00.809Z,101131.18
2018-06-24T00:38:29.368Z,101128.29
2018-06-24T00:40:58.328Z,101124.10
2018-06-24T00:43:27.249Z,101123.77
2018-06-24T00:45:56.547Z,101124.44
2018-06-24T00:48:26.020Z,101121.95
2018-06-24T00:50:55.136Z,101121.15
2018-06-24T00:53:23.910Z,101116.69
2018-06-24T00:55:54.673Z,101121.19
2018-06-24T00:58:24.742Z,101114.16
2018-06-24T01:00:57.400Z,101112.89
2018-06-24T01:03:27.531Z,101107.66
2018-06-24T01:05:56.812Z,101106.56
2018-06-24T01:08:26.901Z,101108.09
2018-06-24T01:10:56.696Z,101106.00
2018-06-24T01:13:25.864Z,101105.91
2018-06-24T01:15:55.434Z,101099.30
2018-06-24T01:18:25.930Z,101103.72
2018-06-24T01:20:56.491Z,101094.33
2018-06-24T01:23:25.993Z,101092.61
2018-06-24T01:25:55.870Z,101099.40
2018-06-24T01:28:26.532Z,101089.75
2018-06-24T01:30:55.544Z,101101.20
2018-06-24T01:33:24.573Z,101090.56
2018-06-24T01:35:54.925Z,101087.43
2018-06-24T01:38:24.028Z,101085.00
2018-06-24T01:40:53.516Z,101088.00
2018-06-24T01:43:23.148Z,101083.58
2018-06-24T01:45:53.549Z,101082.25
2018-06-24T01:48:23.569Z,101087.09
2018-06-24T01:50:53.998Z,101084.34
2018-06-24T01:53:23.011Z,101085.63
2018-06-24T01:55:54.188Z,101082.16
2018-06-24T01:58:23.611Z,101080.83
2018-06-24T02:00:53.575Z,101079.07
2018-06-24T02:03:22.337Z,101078.23
2018-06-24T02:05:51.901Z,101082.40
2018-06-24T02:08:23.220Z,101073.70
2018-06-24T02:10:52.477Z,101077.41
2018-06-24T02:13:23.553Z,101077.08
2018-06-24T02:15:54.552Z,101072.80
2018-06-24T02:18:24.636Z,101075.08
2018-06-24T02:20:54.664Z,101067.58
2018-06-24T02:23:23.984Z,101071.09
2018-06-24T02:25:53.559Z,101072.84
2018-06-24T02:28:22.629Z,101076.84
2018-06-24T02:30:53.071Z,101076.36
2018-06-24T02:33:23.527Z,101071.56
2018-06-24T02:35:53.396Z,101074.65
2018-06-24T02:38:22.385Z,101068.81
2018-06-24T02:40:51.481Z,101070.14
2018-06-24T02:43:21.239Z,101068.38
2018-06-24T02:45:51.148Z,101067.86
2018-06-24T02:48:20.915Z,101066.48
2018-06-24T02:50:49.883Z,101072.19
2018-06-24T02:53:21.156Z,101068.58
2018-06-24T02:55:51.641Z,101070.77
2018-06-24T02:58:21.420Z,101071.71
2018-06-24T03:00:50.443Z,101069.77
2018-06-24T03:03:20.605Z,101061.74
2018-06-24T03:05:52.962Z,101057.03
2018-06-24T03:08:22.200Z,101067.63
2018-06-24T03:10:51.072Z,101054.09
2018-06-24T03:13:23.676Z,101059.38
2018-06-24T03:15:54.484Z,101057.63
2018-06-24T03:18:23.550Z,101055.59
2018-06-24T03:20:52.433Z,101057.63
2018-06-24T03:23:21.900Z,101056.26
2018-06-24T03:25:51.286Z,101053.17
2018-06-24T03:28:21.263Z,101055.73
2018-06-24T03:30:50.393Z,101053.08
2018-06-24T03:33:20.070Z,101060.52
2018-06-24T03:35:49.710Z,101062.28
2018-06-24T03:38:18.545Z,101060.91
2018-06-24T03:40:47.500Z,101062.47
2018-06-24T03:43:16.698Z,101054.65
2018-06-24T03:45:45.413Z,101057.98
2018-06-24T03:48:14.266Z,101056.95
2018-06-24T03:50:43.120Z,101056.95
2018-06-24T03:53:11.989Z,101054.39
2018-06-24T03:55:40.810Z,101049.83
2018-06-24T03:58:09.773Z,101056.48
2018-06-24T04:00:38.950Z,101060.00
2018-06-24T04:03:08.084Z,101051.53
2018-06-24T04:05:36.737Z,101051.53
2018-06-24T04:08:05.497Z,101039.25
2018-06-24T04:10:34.192Z,101042.34
2018-06-24T04:13:02.933Z,101051.09
2018-06-24T04:15:31.595Z,101042.27
2018-06-24T04:18:00.312Z,101045.98
2018-06-24T04:20:29.017Z,101049.61
2018-06-24T04:22:57.703Z,101051.28
2018-06-24T04:25:26.455Z,101041.20
2018-06-24T04:27:55.235Z,101043.83
2018-06-24T04:30:25.400Z,101046.48
2018-06-24T04:32:54.209Z,101052.52
2018-06-24T04:35:23.566Z,101046.02
2018-06-24T04:37:53.093Z,101054.69
2018-06-24T04:40:22.312Z,101051.60
2018-06-24T04:42:51.414Z,101048.73
2018-06-24T04:45:20.591Z,101053.48
2018-06-24T04:47:52.496Z,101051.09
2018-06-24T04:50:21.679Z,101052.64
2018-06-24T04:52:50.814Z,101048.97
2018-06-24T04:55:19.755Z,101055.00
2018-06-24T04:57:48.545Z,101051.34
2018-06-24T05:00:17.405Z,101051.19
2018-06-24T05:02:46.463Z,101054.40
2018-06-24T05:05:15.400Z,101047.78
2018-06-24T05:07:44.359Z,101051.95
2018-06-24T05:10:14.101Z,101047.75
2018-06-24T05:12:43.255Z,101050.30
2018-06-24T05:15:12.233Z,101053.49
2018-06-24T05:17:40.811Z,101050.83
2018-06-24T05:20:09.519Z,101054.20
2018-06-24T05:22:38.192Z,101053.39
2018-06-24T05:25:06.907Z,101051.14
2018-06-24T05:27:35.594Z,101056.06
2018-06-24T05:30:04.350Z,101058.45
2018-06-24T05:32:33.117Z,101053.71
2018-06-24T05:35:01.762Z,101054.29
2018-06-24T05:37:30.629Z,101057.74
2018-06-24T05:39:59.289Z,101051.32
2018-06-24T05:42:27.994Z,101059.52
2018-06-24T05:44:56.706Z,101054.75
2018-06-24T05:47:25.584Z,101046.52
2018-06-24T05:49:54.317Z,101054.98
2018-06-24T05:52:23.073Z,101057.30
2018-06-24T05:54:51.817Z,101052.34
2018-06-24T05:57:20.492Z,101050.89
2018-06-24T05:59:49.271Z,101055.71
2018-06-24T06:02:17.918Z,101060.22
2018-06-24T06:04:46.603Z,101054.34
2018-06-24T06:07:15.274Z,101048.08
2018-06-24T06:09:44.011Z,101052.58
2018-06-24T06:12:12.664Z,101058.47
2018-06-24T06:14:41.392Z,101043.52
2018-06-24T06:17:10.072Z,101048.23
2018-06-24T06:19:38.818Z,101039.81
2018-06-24T06:22:07.481Z,101043.93
2018-06-24T06:24:36.176Z,101051.22
2018-06-24T06:27:04.836Z,101052.21
2018-06-24T06:29:33.521Z,101044.90
2018-06-24T06:32:02.219Z,101051.83
2018-06-24T06:34:30.960Z,101048.32
2018-06-24T06:36:59.624Z,101044.89
2018-06-24T06:39:28.535Z,101047.77
2018-06-24T06:41:57.343Z,101045.42
2018-06-24T06:44:26.020Z,101049.84
2018-06-24T06:46:54.796Z,101043.90
2018-06-24T06:49:23.496Z,101050.28
2018-06-24T06:51:52.157Z,101055.23
2018-06-24T06:54:21.123Z,101043.72
2018-06-24T06:56:50.013Z,101053.00
2018-06-24T06:59:18.746Z,101049.95
2018-06-24T07:01:47.402Z,101055.20
2018-06-24T07:04:16.096Z,101048.58
2018-06-24T07:06:44.749Z,101045.92
2018-06-24T07:09:15.066Z,101041.56
2018-06-24T07:11:43.963Z,101045.36
2018-06-24T07:14:12.718Z,101043.08
2018-06-24T07:16:41.373Z,101037.39
2018-06-24T07:19:10.063Z,101044.15
2018-06-24T07:21:38.729Z,101052.97
2018-06-24T07:24:07.532Z,101047.58
2018-06-24T07:26:36.209Z,101050.37
2018-06-24T07:29:06.584Z,101049.05
2018-06-24T07:31:35.285Z,101046.60
2018-06-24T07:34:04.007Z,101047.70
2018-06-24T07:36:32.674Z,101057.86
2018-06-24T07:39:01.814Z,101054.20
2018-06-24T07:41:30.574Z,101052.27
2018-06-24T07:43:59.457Z,101059.28
2018-06-24T07:46:28.352Z,101055.88
2018-06-24T07:48:57.134Z,101045.94
2018-06-24T07:51:25.982Z,101060.34
2018-06-24T07:53:54.682Z,101062.13
2018-06-24T07:56:23.424Z,101060.33
2018-06-24T07:58:52.123Z,101068.48
2018-06-24T08:01:21.443Z,101073.01
2018-06-24T08:03:57.906Z,101067.75
2018-06-24T08:06:26.622Z,101075.80
2018-06-24T08:08:55.437Z,101072.45
2018-06-24T08:11:24.160Z,101074.70
2018-06-24T08:13:52.806Z,101073.78
2018-06-24T08:16:21.527Z,101072.98
2018-06-24T08:18:50.137Z,101076.45
2018-06-24T08:21:18.832Z,101087.18
2018-06-24T08:23:47.489Z,101071.71
2018-06-24T08:26:16.223Z,101080.58
2018-06-24T08:28:44.880Z,101079.52
2018-06-24T08:31:13.567Z,101080.61
2018-06-24T08:33:42.270Z,101088.94
2018-06-24T08:36:10.996Z,101093.11
2018-06-24T08:38:39.693Z,101094.59
2018-06-24T08:41:08.401Z,101101.03
2018-06-24T08:43:37.100Z,101103.81
2018-06-24T08:46:05.791Z,101099.45
2018-06-24T08:48:35.373Z,101105.69
2018-06-24T08:51:04.072Z,101102.23
2018-06-24T08:53:32.755Z,101105.86
2018-06-24T08:56:01.460Z,101108.94
2018-06-24T08:58:30.171Z,101112.11
2018-06-24T09:00:58.859Z,101107.53
2018-06-24T09:03:27.592Z,101113.94
2018-06-24T09:05:57.841Z,101115.06
2018-06-24T09:08:26.576Z,101117.23
2018-06-24T09:10:55.313Z,101125.63
2018-06-24T09:13:23.967Z,101118.51
2018-06-24T09:15:52.726Z,101127.58
2018-06-24T09:18:22.558Z,101124.62
2018-06-24T09:20:51.277Z,101121.20
2018-06-24T09:23:19.955Z,101115.25
2018-06-24T09:25:48.736Z,101117.44
2018-06-24T09:28:17.418Z,101114.30
2018-06-24T09:30:46.194Z,101109.88
2018-06-24T09:33:15.095Z,101108.65
2018-06-24T09:35:43.938Z,101113.62
2018-06-24T09:38:12.583Z,101111.87
2018-06-24T09:40:41.272Z,101106.54
2018-06-24T09:43:09.908Z,101106.30
2018-06-24T09:45:38.598Z,101106.42
2018-06-24T09:48:07.333Z,101106.88
2018-06-24T09:50:36.030Z,101110.92
2018-06-24T09:53:04.702Z,101112.31
2018-06-24T09:55:33.456Z,101111.23
2018-06-24T09:58:02.125Z,101113.14
2018-06-24T10:00:30.853Z,101101.66
2018-06-24T10:02:59.521Z,101116.78
2018-06-24T10:05:28.245Z,101116.47
2018-06-24T10:07:56.945Z,101109.13
2018-06-24T10:10:25.632Z,101109.48
2018-06-24T10:12:54.335Z,101110.48
2018-06-24T10:15:23.099Z,101116.66
2018-06-24T10:17:51.693Z,101117.15
2018-06-24T10:20:20.411Z,101112.57
2018-06-24T10:22:49.101Z,101105.77
2018-06-24T10:25:17.959Z,101108.17
2018-06-24T10:27:46.652Z,101109.61
2018-06-24T10:30:15.460Z,101107.69
2018-06-24T10:32:46.358Z,101107.87
2018-06-24T10:35:15.377Z,101109.30
2018-06-24T10:37:44.896Z,101109.92
2018-06-24T10:40:14.104Z,101109.50
2018-06-24T10:42:43.275Z,101101.52
2018-06-24T10:45:12.068Z,101097.61
2018-06-24T10:47:41.146Z,101098.02
2018-06-24T10:50:10.121Z,101095.53
2018-06-24T10:52:39.637Z,101091.64
2018-06-24T10:55:08.623Z,101092.39
2018-06-24T10:57:42.064Z,101094.01
2018-06-24T11:00:12.520Z,101095.86
2018-06-24T11:02:41.826Z,101088.03
2018-06-24T11:05:11.168Z,101093.53
2018-06-24T11:07:40.924Z,101095.34
2018-06-24T11:10:09.948Z,101092.62
2018-06-24T11:12:38.841Z,101089.66
2018-06-24T11:15:10.483Z,101084.89
2018-06-24T11:17:39.779Z,101084.82
2018-06-24T11:20:09.229Z,101094.52
2018-06-24T11:22:38.117Z,101083.19
2018-06-24T11:25:06.830Z,101093.42
2018-06-24T11:27:35.561Z,101086.05
2018-06-24T11:30:04.659Z,101089.10
2018-06-24T11:32:33.438Z,101088.03
2018-06-24T11:35:02.160Z,101091.72
2018-06-24T11:37:31.290Z,101091.34
2018-06-24T11:39:59.984Z,101086.75
2018-06-24T11:42:28.762Z,101088.59
2018-06-24T11:44:57.481Z,101091.73
2018-06-24T11:47:26.229Z,101097.73
2018-06-24T11:49:54.879Z,101093.95
2018-06-24T11:52:23.624Z,101085.67
2018-06-24T11:54:52.613Z,101088.46
2018-06-24T11:57:21.728Z,101081.94
2018-06-24T11:59:50.421Z,101079.84
2018-06-24T12:02:19.353Z,101078.16
2018-06-24T12:04:48.704Z,101082.15
2018-06-24T12:07:17.672Z,101081.07
2018-06-24T12:09:46.447Z,101077.80
2018-06-24T12:12:15.119Z,101074.95
2018-06-24T12:14:43.777Z,101072.03
2018-06-24T12:17:12.493Z,101064.61
2018-06-24T12:19:41.585Z,101066.86
2018-06-24T12:22:11.162Z,101066.74
2018-06-24T12:24:40.328Z,101066.52
2018-06-24T12:27:09.439Z,101068.32
2018-06-24T12:29:38.546Z,101064.39
2018-06-24T12:32:07.611Z,101069.20
2018-06-24T12:34:36.978Z,101058.79
2018-06-24T12:37:06.166Z,101058.11
2018-06-24T12:39:35.153Z,101062.20
2018-06-24T12:42:05.515Z,101063.72
2018-06-24T12:44:34.824Z,101060.77
2018-06-24T12:47:04.059Z,101058.59
2018-06-24T12:49:33.421Z,101058.13
2018-06-24T12:52:02.526Z,101061.05
2018-06-24T12:54:34.410Z,101057.16
2018-06-24T12:57:03.280Z,101056.85
2018-06-24T12:59:32.183Z,101054.85
2018-06-24T13:02:00.715Z,101062.88
2018-06-24T13:04:29.387Z,101056.53
2018-06-24T13:06:58.076Z,101049.70
2018-06-24T13:09:26.814Z,101049.59
2018-06-24T13:11:55.565Z,101051.08
2018-06-24T13:14:25.329Z,101044.94
2018-06-24T13:16:54.029Z,101043.05
2018-06-24T13:19:23.029Z,101044.66
2018-06-24T13:21:51.731Z,101042.56
2018-06-24T13:24:20.390Z,101049.14
2018-06-24T13:26:49.251Z,101040.77
2018-06-24T13:29:17.867Z,101046.59
2018-06-24T13:31:46.543Z,101038.80
2018-06-24T13:34:15.259Z,101041.14
2018-06-24T13:36:44.031Z,101039.94
2018-06-24T13:39:12.732Z,101038.61
2018-06-24T13:41:41.483Z,101034.41
2018-06-24T13:44:12.218Z,101034.78
2018-06-24T13:46:40.952Z,101044.92
2018-06-24T13:49:11.238Z,101034.02
2018-06-24T13:51:40.108Z,101039.69
2018-06-24T13:54:08.943Z,101039.49
2018-06-24T13:56:37.622Z,101033.19
2018-06-24T13:59:10.565Z,101026.16
2018-06-24T14:01:39.240Z,101040.44
2018-06-24T14:04:08.803Z,101036.87
2018-06-24T14:06:37.469Z,101040.29
2018-06-24T14:09:06.258Z,101040.33
2018-06-24T14:11:34.925Z,101040.58
2018-06-24T14:14:03.654Z,101040.59
2018-06-24T14:16:32.346Z,101039.83
2018-06-24T14:19:01.090Z,101033.97
2018-06-24T14:21:29.766Z,101037.11
2018-06-24T14:23:58.492Z,101040.65
2018-06-24T14:26:27.385Z,101043.99
2018-06-24T14:28:56.220Z,101047.63
2018-06-24T14:31:25.107Z,101043.82
2018-06-24T14:33:54.010Z,101039.38
2018-06-24T14:36:26.029Z,101043.16
2018-06-24T14:38:54.600Z,101045.09
2018-06-24T14:41:23.369Z,101048.95
2018-06-24T14:43:51.997Z,101050.36
2018-06-24T14:46:20.660Z,101060.79
2018-06-24T14:48:49.506Z,101043.73
2018-06-24T14:51:18.167Z,101048.00
2018-06-24T14:53:46.892Z,101039.94
2018-06-24T14:56:15.670Z,101036.45
2018-06-24T14:58:44.452Z,101029.89
2018-06-24T15:04:00.749Z,101037.35
2018-06-24T15:06:29.413Z,101035.20
2018-06-24T15:08:58.136Z,101034.92
2018-06-24T15:11:26.882Z,101033.31
2018-06-24T15:13:55.576Z,101021.56
2018-06-24T15:16:24.241Z,101022.06
2018-06-24T15:18:52.940Z,101021.23
2018-06-24T15:21:21.634Z,101025.66
2018-06-24T15:23:51.313Z,101021.94
2018-06-24T15:26:20.134Z,101018.12
2018-06-24T15:28:48.834Z,101020.58
2018-06-24T15:31:17.540Z,101021.83
2018-06-24T15:56:29.297Z,101016.78
2018-06-24T15:59:00.011Z,101007.98
2018-06-24T16:01:29.115Z,100999.36
2018-06-24T16:03:57.938Z,100995.88
2018-06-24T16:06:26.717Z,101003.73
2018-06-24T16:08:55.557Z,101000.95
2018-06-24T16:11:24.451Z,101006.69
2018-06-24T16:13:53.120Z,101007.26
2018-06-24T16:16:22.112Z,101002.56
2018-06-24T16:18:52.678Z,101006.75
2018-06-24T16:24:10.308Z,101005.67
2018-06-24T16:26:40.464Z,100998.03
2018-06-24T16:29:12.154Z,101002.28
2018-06-24T16:31:41.165Z,101000.95
2018-06-24T16:34:10.667Z,101004.18
2018-06-24T16:36:40.594Z,101006.09
2018-06-24T16:39:10.702Z,101008.06
2018-06-24T16:41:39.417Z,101005.33
2018-06-24T16:44:09.021Z,101005.84
2018-06-24T16:46:37.728Z,101003.92
2018-06-24T16:49:07.674Z,100998.05
2018-06-24T16:51:40.424Z,101006.70
2018-06-24T16:54:10.699Z,101012.91
2018-06-24T16:56:39.807Z,101009.20
2018-06-24T16:59:09.986Z,101008.36
2018-06-24T17:01:39.548Z,101000.69
2018-06-24T17:04:08.676Z,101005.07
2018-06-24T17:06:37.876Z,101007.64
2018-06-24T17:09:06.632Z,101006.89
2018-06-24T17:11:35.643Z,101004.41
2018-06-24T17:14:09.400Z,100995.64
2018-06-24T17:16:42.757Z,101000.39
2018-06-24T17:19:11.821Z,100990.95
2018-06-24T17:21:40.924Z,100988.84
2018-06-24T17:24:09.856Z,100987.66
2018-06-24T17:26:38.708Z,100986.10
2018-06-24T17:29:07.549Z,100989.75
2018-06-24T17:31:36.428Z,100980.70
2018-06-24T17:34:05.353Z,100984.53
2018-06-24T17:36:34.121Z,100979.11
2018-06-24T17:39:02.892Z,100977.05
2018-06-24T17:41:32.654Z,100977.66
2018-06-24T17:44:01.354Z,100977.36
2018-06-24T17:46:30.733Z,100977.30
2018-06-24T17:51:53.218Z,100979.97
2018-06-24T17:54:22.209Z,100978.00
2018-06-24T17:56:51.255Z,100980.85
2018-06-24T17:59:21.180Z,100974.11
2018-06-24T18:01:50.193Z,100974.54
2018-06-24T18:04:19.254Z,100968.88
2018-06-24T18:06:48.447Z,100962.28
2018-06-24T18:09:19.731Z,100969.88
2018-06-24T18:11:48.709Z,100954.21
2018-06-24T18:17:05.424Z,100959.00
2018-06-24T18:19:34.637Z,100962.59
2018-06-24T18:22:04.315Z,100955.83
2018-06-24T18:24:33.702Z,100963.31
2018-06-24T18:27:04.351Z,100959.52
2018-06-24T18:29:38.907Z,100958.38
2018-06-24T18:32:10.301Z,100958.94
2018-06-24T18:34:41.676Z,100961.91
2018-06-24T18:37:13.930Z,100962.28
2018-06-24T18:39:47.165Z,100951.88
2018-06-24T18:42:17.220Z,100957.84
2018-06-24T18:44:47.418Z,100953.07
2018-06-24T18:47:16.280Z,100960.45
2018-06-24T18:49:45.444Z,100961.06
2018-06-24T18:52:14.523Z,100952.93
2018-06-24T18:54:43.536Z,100954.31
2018-06-24T18:57:16.879Z,100952.40
2018-06-24T18:59:46.135Z,100954.59
2018-06-24T19:02:18.962Z,100959.91
2018-06-24T19:04:47.883Z,100962.28
2018-06-24T19:07:25.887Z,100972.55
2018-06-24T19:09:55.158Z,100972.31
2018-06-24T19:12:23.989Z,100972.95
2018-06-24T19:14:55.780Z,100979.53
2018-06-24T19:17:24.913Z,100974.17
2018-06-24T19:19:56.492Z,100974.73
2018-06-24T19:22:25.756Z,100987.81
2018-06-24T19:24:54.877Z,100989.52
2018-06-24T19:27:27.308Z,100993.22
2018-06-24T19:29:59.199Z,100990.63
2018-06-24T19:32:28.935Z,100994.91
2018-06-24T19:34:58.201Z,100993.95
2018-06-24T19:40:15.486Z,100994.66
2018-06-24T19:42:45.741Z,100995.58
2018-06-24T19:45:17.440Z,100998.42
2018-06-24T19:47:48.797Z,100996.56
2018-06-24T19:50:17.585Z,101001.92
2018-06-24T19:52:47.635Z,101002.48
2018-06-24T19:55:23.085Z,100996.45
2018-06-24T19:57:58.534Z,101001.08
2018-06-24T20:00:28.673Z,101003.66
2018-06-24T20:02:59.072Z,101003.09
2018-06-24T20:05:30.349Z,101001.50
2018-06-24T20:08:00.841Z,101001.55
2018-06-24T20:10:30.933Z,101001.77
2018-06-24T20:12:59.456Z,101001.40
2018-06-24T20:15:28.172Z,100998.59
2018-06-24T20:17:56.897Z,100993.84
2018-06-24T20:20:25.711Z,100995.47
2018-06-24T20:22:54.450Z,100995.11
2018-06-24T20:25:23.206Z,100998.23
2018-06-24T20:27:52.646Z,100997.63
2018-06-24T20:30:21.390Z,101000.14
2018-06-24T20:32:50.083Z,100995.94
2018-06-24T20:35:18.888Z,100996.62
2018-06-24T20:37:47.667Z,100989.25
2018-06-24T20:40:19.195Z,100993.95
2018-06-24T20:42:47.944Z,100998.20
2018-06-24T20:45:16.677Z,100994.36
2018-06-24T20:47:45.518Z,100993.03
2018-06-24T20:50:14.203Z,100983.39
2018-06-24T20:52:42.917Z,100981.64
2018-06-24T20:55:11.583Z,100977.60
2018-06-24T20:57:40.363Z,100981.12
2018-06-24T21:00:09.604Z,100978.44
2018-06-24T21:02:39.232Z,100980.84
2018-06-24T21:05:07.975Z,100984.53
2018-06-24T21:07:52.368Z,100995.77
2018-06-24T21:10:21.192Z,100991.98
2018-06-24T21:12:49.909Z,100987.13
2018-06-24T21:15:19.791Z,100995.34
2018-06-24T21:17:48.575Z,100993.20
2018-06-24T21:20:17.432Z,101001.70
2018-06-24T21:22:46.226Z,100994.85
2018-06-24T21:25:14.986Z,100996.46
2018-06-24T21:27:43.745Z,100998.16
2018-06-24T21:30:12.623Z,100997.67
2018-06-24T21:32:41.486Z,100998.88
2018-06-24T21:37:58.213Z,101003.19
2018-06-24T21:40:31.898Z,101002.13
2018-06-24T21:43:00.943Z,101000.97
2018-06-24T21:45:30.853Z,100996.92
2018-06-24T21:47:59.473Z,100998.16
2018-06-24T21:50:28.258Z,100996.63
2018-06-24T21:52:59.794Z,101000.16
2018-06-24T21:55:28.912Z,100998.49
2018-06-24T21:57:58.006Z,100999.16
2018-06-24T22:00:27.066Z,100999.47
2018-06-24T22:02:56.000Z,100993.02
2018-06-24T22:05:24.838Z,100996.51
2018-06-24T22:07:53.700Z,101002.43
2018-06-24T22:10:22.536Z,100994.70
2018-06-24T22:12:51.674Z,100997.23
2018-06-24T22:15:20.383Z,100995.44
2018-06-24T22:17:49.441Z,101004.77
2018-06-24T22:20:18.178Z,101006.34
2018-06-24T22:22:47.445Z,101002.71
2018-06-24T22:25:16.257Z,101008.33
2018-06-24T22:27:45.084Z,101008.91
2018-06-24T22:30:13.879Z,101010.41
2018-06-24T22:32:42.844Z,101011.52
2018-06-24T22:35:11.579Z,101005.39
2018-06-24T22:37:40.321Z,101008.83
2018-06-24T22:40:10.041Z,101009.27
2018-06-24T22:42:40.222Z,101001.59
2018-06-24T22:45:10.067Z,101000.59
2018-06-24T22:47:39.423Z,101000.91
2018-06-24T22:50:08.282Z,101005.14
2018-06-24T22:52:37.157Z,101004.77
2018-06-24T22:55:05.953Z,101001.83
2018-06-24T22:57:35.263Z,101004.17
2018-06-24T23:00:04.694Z,100997.20
2018-06-24T23:02:33.293Z,100996.30
2018-06-24T23:05:03.315Z,100994.70
2018-06-24T23:07:32.213Z,100997.53
2018-06-24T23:10:01.013Z,100996.37
2018-06-24T23:12:30.164Z,100993.52
2018-06-24T23:14:59.023Z,100998.52
2018-06-24T23:17:28.809Z,100996.97
2018-06-24T23:19:57.562Z,100993.20
2018-06-24T23:22:26.380Z,100999.87
2018-06-24T23:24:55.174Z,101002.11
2018-06-24T23:27:24.034Z,101004.77
2018-06-24T23:29:52.845Z,101004.34
2018-06-24T23:32:21.597Z,101000.72
2018-06-24T23:34:50.699Z,101000.77
2018-06-24T23:37:21.101Z,100997.78
2018-06-24T23:39:51.298Z,101005.03
2018-06-24T23:42:20.133Z,101003.70
2018-06-24T23:44:48.907Z,100999.80
2018-06-24T23:47:17.794Z,101001.52
2018-06-24T23:49:46.900Z,101000.23
2018-06-24T23:52:15.754Z,100998.95
2018-06-24T23:54:44.696Z,100995.86
2018-06-24T23:57:13.502Z,100997.67
2018-06-24T23:59:42.522Z,100991.53
